Time;durP1;ratioP1;P1;durP2;ratioP2;P2;SDS_P1;SDS_P2;PMS_P1;PMS_P2;Temp;Humidity;BMP_temperature;BMP_pressure;BME280_temperature;BME280_humidity;BME280_pressure;Samples;Min_cycle;Max_cycle;Signal;HPM_P1;HPM_P2
2023/06/02 00:00:52;;;;;;;10.93;6.77;;;;;;;;;;4961885;29;20395;-74
2023/06/02 00:03:18;;;;;;;12.00;7.13;;;;;;;;;;4962365;29;20532;-74
2023/06/02 00:05:46;;;;;;;11.30;7.90;;;;;;;;;;4963009;29;20428;-74
2023/06/02 00:08:12;;;;;;;11.10;8.10;;;;;;;;;;4962508;29;20395;-74
2023/06/02 00:10:39;;;;;;;11.60;6.50;;;;;;;;;;4962457;29;20391;-74
2023/06/02 00:13:07;;;;;;;8.13;7.03;;;;;;;;;;4962224;29;20488;-74
2023/06/02 00:15:34;;;;;;;11.10;7.80;;;;;;;;;;4961805;29;20559;-74
2023/06/02 00:18:00;;;;;;;13.23;6.67;;;;;;;;;;4961869;29;20419;-74
2023/06/02 00:20:26;;;;;;;10.13;7.03;;;;;;;;;;4962425;29;20473;-74
2023/06/02 00:22:54;;;;;;;13.63;7.90;;;;;;;;;;4962293;29;20402;-76
2023/06/02 00:25:20;;;;;;;9.50;7.27;;;;;;;;;;4961720;29;20462;-74
2023/06/02 00:27:46;;;;;;;10.73;6.90;;;;;;;;;;4962726;29;20580;-74
2023/06/02 00:30:12;;;;;;;10.43;6.83;;;;;;;;;;4962187;29;20429;-74
2023/06/02 00:32:38;;;;;;;10.60;7.67;;;;;;;;;;4962020;29;20843;-74
2023/06/02 00:35:04;;;;;;;8.40;6.57;;;;;;;;;;4961713;29;20435;-74
2023/06/02 00:37:30;;;;;;;11.27;6.97;;;;;;;;;;4961734;29;20410;-74
2023/06/02 00:39:56;;;;;;;15.37;7.93;;;;;;;;;;4961334;29;20827;-74
2023/06/02 00:42:22;;;;;;;14.30;6.63;;;;;;;;;;4961808;29;20405;-74
2023/06/02 00:44:48;;;;;;;10.77;6.90;;;;;;;;;;4961536;29;20795;-71
2023/06/02 00:47:14;;;;;;;11.13;7.47;;;;;;;;;;4961564;29;20422;-74
2023/06/02 00:49:42;;;;;;;7.43;6.70;;;;;;;;;;4961534;29;20391;-74
2023/06/02 00:52:09;;;;;;;11.57;6.97;;;;;;;;;;4961169;28;20389;-74
2023/06/02 00:54:36;;;;;;;12.50;6.77;;;;;;;;;;4961273;29;20897;-74
2023/06/02 00:57:02;;;;;;;7.20;6.50;;;;;;;;;;4961075;29;20479;-74
2023/06/02 00:59:28;;;;;;;9.13;6.17;;;;;;;;;;4961470;29;20452;-74
2023/06/02 01:01:54;;;;;;;8.17;6.37;;;;;;;;;;4961262;29;20408;-77
2023/06/02 01:04:21;;;;;;;10.50;6.20;;;;;;;;;;4960482;29;20432;-74
2023/06/02 01:06:48;;;;;;;10.17;5.80;;;;;;;;;;4961201;29;20538;-74
2023/06/02 01:09:18;;;;;;;13.17;8.50;;;;;;;;;;4961012;29;20409;-74
2023/06/02 01:11:46;;;;;;;8.43;5.80;;;;;;;;;;4961330;29;20374;-74
2023/06/02 01:14:12;;;;;;;8.90;6.60;;;;;;;;;;4961024;29;20471;-74
2023/06/02 01:16:39;;;;;;;11.23;6.20;;;;;;;;;;4961268;29;20424;-74
2023/06/02 01:19:06;;;;;;;8.87;6.30;;;;;;;;;;4960816;29;20444;-74
2023/06/02 01:21:37;;;;;;;12.57;6.93;;;;;;;;;;4961323;29;20408;-74
2023/06/02 01:24:03;;;;;;;7.70;5.73;;;;;;;;;;4960707;29;20487;-74
2023/06/02 01:26:34;;;;;;;7.90;5.80;;;;;;;;;;4960771;29;20742;-74
2023/06/02 01:29:00;;;;;;;7.10;6.40;;;;;;;;;;4960676;29;20897;-74
2023/06/02 01:31:27;;;;;;;12.43;6.60;;;;;;;;;;4960849;29;20410;-74
2023/06/02 01:34:08;;;;;;;8.10;5.93;;;;;;;;;;4960704;29;20526;-74
2023/06/02 01:36:36;;;;;;;10.20;6.20;;;;;;;;;;4961177;29;20387;-74
2023/06/02 01:39:02;;;;;;;11.03;6.43;;;;;;;;;;4960079;29;20390;-74
2023/06/02 01:41:30;;;;;;;10.87;7.60;;;;;;;;;;4960676;29;20413;-74
2023/06/02 01:43:56;;;;;;;14.13;8.30;;;;;;;;;;4960892;29;20916;-74
2023/06/02 01:46:26;;;;;;;16.53;9.90;;;;;;;;;;4960897;29;20446;-74
2023/06/02 01:48:55;;;;;;;12.13;10.20;;;;;;;;;;4960518;29;20420;-74
2023/06/02 01:51:21;;;;;;;13.93;11.57;;;;;;;;;;4960203;29;20465;-74
2023/06/02 01:53:47;;;;;;;14.53;10.90;;;;;;;;;;4960575;29;20399;-74
2023/06/02 01:56:13;;;;;;;15.90;11.27;;;;;;;;;;4960267;29;20471;-74
2023/06/02 01:58:40;;;;;;;13.77;11.77;;;;;;;;;;4960689;29;20419;-74
2023/06/02 02:01:06;;;;;;;13.70;11.73;;;;;;;;;;4960332;29;20473;-74
2023/06/02 02:03:33;;;;;;;17.97;12.87;;;;;;;;;;4959626;28;20420;-74
2023/06/02 02:05:59;;;;;;;19.47;13.90;;;;;;;;;;4959814;29;20881;-76
2023/06/02 02:08:25;;;;;;;18.83;12.63;;;;;;;;;;4959840;29;20401;-74
2023/06/02 02:10:51;;;;;;;16.77;13.50;;;;;;;;;;4960517;29;20837;-74
2023/06/02 02:13:17;;;;;;;16.47;13.43;;;;;;;;;;4960547;29;20442;-74
2023/06/02 02:15:43;;;;;;;19.63;14.80;;;;;;;;;;4960007;29;20454;-74
2023/06/02 02:18:09;;;;;;;17.33;14.00;;;;;;;;;;4959467;29;20875;-74
2023/06/02 02:20:40;;;;;;;24.27;15.97;;;;;;;;;;4960239;29;20452;-75
2023/06/02 02:23:06;;;;;;;20.60;16.70;;;;;;;;;;4959423;29;20408;-74
2023/06/02 02:25:32;;;;;;;21.90;18.83;;;;;;;;;;4960162;29;20422;-74
2023/06/02 02:27:58;;;;;;;22.30;18.57;;;;;;;;;;4960228;29;20388;-74
2023/06/02 02:30:24;;;;;;;25.63;17.30;;;;;;;;;;4959729;29;20419;-74
2023/06/02 02:32:51;;;;;;;20.37;17.60;;;;;;;;;;4959571;29;20454;-74
2023/06/02 02:35:17;;;;;;;21.87;17.93;;;;;;;;;;4959328;29;20471;-74
2023/06/02 02:37:44;;;;;;;24.20;18.00;;;;;;;;;;4959510;29;20401;-74
2023/06/02 02:40:10;;;;;;;28.30;19.10;;;;;;;;;;4959780;29;20387;-74
2023/06/02 02:42:36;;;;;;;20.63;18.00;;;;;;;;;;4959520;29;20420;-74
2023/06/02 02:45:02;;;;;;;21.03;18.23;;;;;;;;;;4959462;29;20409;-74
2023/06/02 02:47:28;;;;;;;26.93;18.10;;;;;;;;;;4959074;29;20416;-74
2023/06/02 02:49:54;;;;;;;23.97;17.90;;;;;;;;;;4959620;29;20460;-74
2023/06/02 02:52:21;;;;;;;18.63;16.40;;;;;;;;;;4959333;29;20398;-74
2023/06/02 02:54:47;;;;;;;19.10;14.60;;;;;;;;;;4959778;29;20538;-74
2023/06/02 02:57:13;;;;;;;16.80;14.03;;;;;;;;;;4959292;29;20427;-74
2023/06/02 02:59:39;;;;;;;15.40;13.83;;;;;;;;;;4959567;29;20395;-74
2023/06/02 03:02:06;;;;;;;16.93;14.13;;;;;;;;;;4959898;29;20560;-74
2023/06/02 03:04:32;;;;;;;16.60;13.27;;;;;;;;;;4959219;29;20895;-74
2023/06/02 03:06:59;;;;;;;18.80;13.80;;;;;;;;;;4960016;29;20408;-74
2023/06/02 03:09:25;;;;;;;17.27;15.40;;;;;;;;;;4959029;29;20391;-74
2023/06/02 03:11:51;;;;;;;24.03;15.70;;;;;;;;;;4959583;29;20884;-74
2023/06/02 03:14:17;;;;;;;18.87;15.07;;;;;;;;;;4958163;29;20409;-79
2023/06/02 03:16:44;;;;;;;19.10;14.60;;;;;;;;;;4962319;28;20384;-74
2023/06/02 03:19:10;;;;;;;17.13;15.13;;;;;;;;;;4963276;29;20391;-74
2023/06/02 03:21:44;;;;;;;18.07;16.27;;;;;;;;;;4963442;29;20463;-74
2023/06/02 03:24:11;;;;;;;18.43;16.20;;;;;;;;;;4962523;29;20391;-74
2023/06/02 03:26:40;;;;;;;20.20;17.03;;;;;;;;;;4962913;29;20898;-74
2023/06/02 03:29:06;;;;;;;24.90;19.43;;;;;;;;;;4963214;29;20764;-74
2023/06/02 03:31:32;;;;;;;22.90;18.57;;;;;;;;;;4962233;29;20415;-74
2023/06/02 03:33:58;;;;;;;22.07;19.67;;;;;;;;;;4962898;29;20375;-74
2023/06/02 03:36:25;;;;;;;25.77;20.60;;;;;;;;;;4962262;29;20479;-74
2023/06/02 03:38:50;;;;;;;25.10;22.40;;;;;;;;;;4963179;29;20409;-74
2023/06/02 03:41:16;;;;;;;28.67;21.63;;;;;;;;;;4961818;29;20504;-74
2023/06/02 03:43:42;;;;;;;27.00;23.60;;;;;;;;;;4962652;29;20417;-74
2023/06/02 03:46:08;;;;;;;26.87;21.50;;;;;;;;;;4962652;29;20414;-74
2023/06/02 03:48:35;;;;;;;31.30;21.40;;;;;;;;;;4963056;29;20967;-74
2023/06/02 03:51:01;;;;;;;25.10;20.30;;;;;;;;;;4961790;29;20469;-74
2023/06/02 03:53:27;;;;;;;20.90;18.80;;;;;;;;;;4962283;29;20408;-74
2023/06/02 03:55:53;;;;;;;24.57;20.23;;;;;;;;;;4962766;29;20446;-74
2023/06/02 03:58:19;;;;;;;23.30;19.17;;;;;;;;;;4962665;29;20765;-74
2023/06/02 04:00:46;;;;;;;30.93;19.93;;;;;;;;;;4962105;29;20399;-75
2023/06/02 04:03:12;;;;;;;22.53;18.80;;;;;;;;;;4961379;29;20947;-74
2023/06/02 04:05:38;;;;;;;29.43;19.20;;;;;;;;;;4961824;29;20428;-74
2023/06/02 04:08:04;;;;;;;29.60;20.37;;;;;;;;;;4962065;29;20413;-74
2023/06/02 04:10:30;;;;;;;23.90;18.57;;;;;;;;;;4962446;29;20394;-74
2023/06/02 04:12:57;;;;;;;21.40;19.20;;;;;;;;;;4962196;29;20409;-74
2023/06/02 04:15:24;;;;;;;24.03;18.13;;;;;;;;;;4961403;29;20472;-74
2023/06/02 04:17:50;;;;;;;21.13;18.70;;;;;;;;;;4961423;29;20425;-74
2023/06/02 04:20:16;;;;;;;20.23;18.13;;;;;;;;;;4961919;29;20419;-74
2023/06/02 04:22:42;;;;;;;20.90;17.90;;;;;;;;;;4962139;29;20764;-74
2023/06/02 04:25:08;;;;;;;21.13;18.93;;;;;;;;;;4962045;29;20387;-75
2023/06/02 04:27:34;;;;;;;18.40;16.30;;;;;;;;;;4961534;28;20389;-74
2023/06/02 04:30:01;;;;;;;27.27;16.67;;;;;;;;;;4961973;29;20456;-74
2023/06/02 04:32:27;;;;;;;22.93;16.80;;;;;;;;;;4961408;29;20755;-74
2023/06/02 04:34:53;;;;;;;29.63;17.60;;;;;;;;;;4961598;29;20464;-74
2023/06/02 04:37:19;;;;;;;22.53;16.00;;;;;;;;;;4961544;29;20897;-74
2023/06/02 04:39:47;;;;;;;24.53;17.37;;;;;;;;;;4961425;29;20437;-74
2023/06/02 04:42:16;;;;;;;21.03;16.30;;;;;;;;;;4962013;29;20409;-74
2023/06/02 04:44:44;;;;;;;19.70;16.30;;;;;;;;;;4961677;29;20453;-74
2023/06/02 04:47:10;;;;;;;25.70;16.67;;;;;;;;;;4961297;29;20424;-74
2023/06/02 04:49:36;;;;;;;24.33;17.17;;;;;;;;;;4959942;29;20412;-74
2023/06/02 04:52:04;;;;;;;27.50;19.73;;;;;;;;;;4961400;29;20415;-74
2023/06/02 04:54:30;;;;;;;25.83;18.40;;;;;;;;;;4960943;29;20453;-74
2023/06/02 04:56:56;;;;;;;26.70;19.20;;;;;;;;;;4961345;29;20408;-74
2023/06/02 04:59:23;;;;;;;26.30;19.73;;;;;;;;;;4960504;29;20448;-74
2023/06/02 05:01:49;;;;;;;28.37;22.90;;;;;;;;;;4961079;29;20425;-74
2023/06/02 05:04:15;;;;;;;29.87;23.37;;;;;;;;;;4961028;29;20421;-74
2023/06/02 05:06:41;;;;;;;30.23;23.43;;;;;;;;;;4960594;29;20848;-74
2023/06/02 05:09:07;;;;;;;27.40;23.30;;;;;;;;;;4960999;29;20383;-74
2023/06/02 05:11:33;;;;;;;30.90;23.83;;;;;;;;;;4960592;29;20431;-74
2023/06/02 05:13:59;;;;;;;32.57;24.47;;;;;;;;;;4955812;29;20420;-74
2023/06/02 05:16:28;;;;;;;31.27;24.80;;;;;;;;;;4960532;29;20495;-73
2023/06/02 05:18:54;;;;;;;30.10;23.77;;;;;;;;;;4960755;29;20799;-73
2023/06/02 05:21:20;;;;;;;28.23;22.00;;;;;;;;;;4960859;29;20445;-73
2023/06/02 05:23:46;;;;;;;23.33;18.07;;;;;;;;;;4961164;29;20494;-73
2023/06/02 05:26:12;;;;;;;23.50;18.03;;;;;;;;;;4960852;29;20404;-74
2023/06/02 05:28:38;;;;;;;20.90;15.40;;;;;;;;;;4960518;29;20404;-74
2023/06/02 05:31:04;;;;;;;17.33;15.00;;;;;;;;;;4960869;29;20388;-73
2023/06/02 05:33:30;;;;;;;22.43;14.90;;;;;;;;;;4960312;29;20850;-73
2023/06/02 05:35:56;;;;;;;14.83;11.40;;;;;;;;;;4960060;29;20455;-73
2023/06/02 05:38:22;;;;;;;15.07;11.20;;;;;;;;;;4958692;28;20398;-74
2023/06/02 05:40:48;;;;;;;13.17;10.70;;;;;;;;;;4960043;29;20484;-74
2023/06/02 05:43:14;;;;;;;18.27;12.03;;;;;;;;;;4960315;29;20399;-74
2023/06/02 05:45:40;;;;;;;15.60;9.80;;;;;;;;;;4960224;29;20420;-74
2023/06/02 05:48:06;;;;;;;20.23;11.13;;;;;;;;;;4960674;29;20451;-73
2023/06/02 05:50:32;;;;;;;15.57;9.60;;;;;;;;;;4960213;29;20451;-73
2023/06/02 05:52:58;;;;;;;17.40;10.83;;;;;;;;;;4959961;29;20476;-73
2023/06/02 05:55:24;;;;;;;16.60;10.20;;;;;;;;;;4960015;29;20471;-73
2023/06/02 05:57:52;;;;;;;17.03;10.90;;;;;;;;;;4960042;29;20503;-73
2023/06/02 06:00:18;;;;;;;13.13;10.23;;;;;;;;;;4959858;29;20430;-73
2023/06/02 06:02:45;;;;;;;10.53;9.30;;;;;;;;;;4959971;29;20413;-73
2023/06/02 06:05:11;;;;;;;15.80;10.30;;;;;;;;;;4959660;29;20506;-73
2023/06/02 06:07:37;;;;;;;14.50;10.73;;;;;;;;;;4959960;29;20451;-73
2023/06/02 06:10:03;;;;;;;17.63;11.13;;;;;;;;;;4959526;29;20383;-73
2023/06/02 06:12:29;;;;;;;15.10;11.30;;;;;;;;;;4959887;29;20901;-73
2023/06/02 06:14:55;;;;;;;18.20;10.77;;;;;;;;;;4960041;29;20734;-73
2023/06/02 06:17:21;;;;;;;18.67;12.20;;;;;;;;;;4959782;29;20380;-73
2023/06/02 06:19:47;;;;;;;12.40;10.70;;;;;;;;;;4959242;29;20931;-73
2023/06/02 06:22:13;;;;;;;18.90;10.70;;;;;;;;;;4960063;29;20416;-73
2023/06/02 06:24:39;;;;;;;18.00;12.30;;;;;;;;;;4959447;29;20430;-73
2023/06/02 06:27:05;;;;;;;10.53;9.50;;;;;;;;;;4960108;29;20397;-73
2023/06/02 06:29:31;;;;;;;15.80;9.93;;;;;;;;;;4959880;29;20399;-73
2023/06/02 06:31:57;;;;;;;17.00;10.50;;;;;;;;;;4959805;29;20832;-73
2023/06/02 06:34:23;;;;;;;15.03;10.83;;;;;;;;;;4959772;29;20495;-73
2023/06/02 06:36:49;;;;;;;11.10;9.43;;;;;;;;;;4959519;29;20819;-73
2023/06/02 06:39:15;;;;;;;13.97;10.00;;;;;;;;;;4959225;29;20391;-74
2023/06/02 06:41:42;;;;;;;15.53;10.37;;;;;;;;;;4959098;29;20390;-73
2023/06/02 06:44:08;;;;;;;14.53;11.30;;;;;;;;;;4959328;29;20390;-73
2023/06/02 06:46:34;;;;;;;15.50;12.40;;;;;;;;;;4959747;29;20446;-73
2023/06/02 06:49:00;;;;;;;13.83;12.40;;;;;;;;;;4960332;29;20387;-73
2023/06/02 06:51:26;;;;;;;16.73;11.90;;;;;;;;;;4962116;28;20488;-73
2023/06/02 06:53:52;;;;;;;18.67;11.23;;;;;;;;;;4963107;29;20446;-73
2023/06/02 06:56:18;;;;;;;16.83;11.43;;;;;;;;;;4963400;29;20774;-73
2023/06/02 06:58:44;;;;;;;15.97;11.00;;;;;;;;;;4963372;29;20412;-73
2023/06/02 07:01:12;;;;;;;14.30;10.20;;;;;;;;;;4963731;29;20383;-73
2023/06/02 07:03:38;;;;;;;16.27;10.67;;;;;;;;;;4963361;29;20383;-73
2023/06/02 07:06:04;;;;;;;20.80;12.10;;;;;;;;;;4963488;29;20860;-73
2023/06/02 07:08:30;;;;;;;14.70;12.63;;;;;;;;;;4963344;29;21266;-73
2023/06/02 07:10:56;;;;;;;16.07;11.77;;;;;;;;;;4963503;29;20383;-73
2023/06/02 07:13:22;;;;;;;15.37;12.50;;;;;;;;;;4963061;29;20423;-73
2023/06/02 07:15:48;;;;;;;20.10;12.97;;;;;;;;;;4963623;29;20451;-73
2023/06/02 07:18:14;;;;;;;19.13;12.90;;;;;;;;;;4963295;29;20451;-73
2023/06/02 07:20:40;;;;;;;19.77;12.00;;;;;;;;;;4963382;29;20401;-73
2023/06/02 07:23:06;;;;;;;18.93;11.83;;;;;;;;;;4962985;29;20383;-73
2023/06/02 07:25:32;;;;;;;17.57;11.30;;;;;;;;;;4963109;29;20738;-74
2023/06/02 07:27:58;;;;;;;12.73;11.43;;;;;;;;;;4962636;29;20440;-73
2023/06/02 07:30:24;;;;;;;18.00;11.90;;;;;;;;;;4963170;29;20390;-73
2023/06/02 07:32:50;;;;;;;15.03;10.90;;;;;;;;;;4962978;29;20449;-73
2023/06/02 07:35:16;;;;;;;16.57;10.70;;;;;;;;;;4962652;29;20474;-73
2023/06/02 07:37:42;;;;;;;19.63;12.40;;;;;;;;;;4962475;29;20409;-75
2023/06/02 07:40:08;;;;;;;14.17;10.87;;;;;;;;;;4962613;29;20375;-73
2023/06/02 07:42:34;;;;;;;15.17;11.50;;;;;;;;;;4962355;29;20452;-74
2023/06/02 07:45:00;;;;;;;16.80;11.50;;;;;;;;;;4962268;29;20788;-73
2023/06/02 07:47:26;;;;;;;17.00;10.80;;;;;;;;;;4962553;29;20388;-73
2023/06/02 07:49:52;;;;;;;13.40;10.60;;;;;;;;;;4961888;29;20498;-73
2023/06/02 07:52:18;;;;;;;13.07;10.73;;;;;;;;;;4962267;29;20408;-73
2023/06/02 07:54:44;;;;;;;16.00;11.03;;;;;;;;;;4962225;29;20467;-73
2023/06/02 07:57:10;;;;;;;17.30;11.17;;;;;;;;;;4945457;29;20413;-73
2023/06/02 07:59:37;;;;;;;18.67;11.93;;;;;;;;;;4962199;29;20775;-73
2023/06/02 08:02:03;;;;;;;20.90;11.73;;;;;;;;;;4961269;28;20411;-73
2023/06/02 08:04:29;;;;;;;17.03;11.00;;;;;;;;;;4961764;29;20425;-74
2023/06/02 08:06:55;;;;;;;11.70;9.63;;;;;;;;;;4945543;29;20901;-80
2023/06/02 08:09:22;;;;;;;15.47;10.80;;;;;;;;;;4940438;29;20384;-79
2023/06/02 08:11:49;;;;;;;23.73;11.70;;;;;;;;;;4940843;29;20425;-79
2023/06/02 08:14:15;;;;;;;16.07;10.97;;;;;;;;;;4940842;29;20418;-78
2023/06/02 08:16:41;;;;;;;15.70;10.50;;;;;;;;;;4941346;29;20426;-77
2023/06/02 08:19:07;;;;;;;12.60;10.87;;;;;;;;;;4941495;29;20409;-76
2023/06/02 08:21:34;;;;;;;16.57;12.00;;;;;;;;;;4941151;29;20384;-77
2023/06/02 08:24:00;;;;;;;18.03;11.10;;;;;;;;;;4940753;29;20424;-77
2023/06/02 08:26:26;;;;;;;21.30;11.60;;;;;;;;;;4940526;29;20472;-77
2023/06/02 08:28:53;;;;;;;13.60;9.50;;;;;;;;;;4940841;29;20871;-77
2023/06/02 08:31:21;;;;;;;17.70;10.20;;;;;;;;;;4940867;29;20393;-77
2023/06/02 08:33:47;;;;;;;15.67;8.67;;;;;;;;;;4940057;29;20406;-77
2023/06/02 08:36:17;;;;;;;9.77;8.83;;;;;;;;;;4940579;29;20575;-77
2023/06/02 08:38:44;;;;;;;19.13;8.90;;;;;;;;;;4940353;29;20778;-77
2023/06/02 08:41:14;;;;;;;14.10;9.00;;;;;;;;;;4940589;29;20784;-81
2023/06/02 08:43:44;;;;;;;10.30;7.63;;;;;;;;;;4940879;29;20391;-75
2023/06/02 08:46:14;;;;;;;15.90;9.40;;;;;;;;;;4940944;29;20416;-75
2023/06/02 08:48:45;;;;;;;10.40;9.30;;;;;;;;;;4940064;29;20966;-75
2023/06/02 08:51:11;;;;;;;14.27;8.97;;;;;;;;;;4941585;29;20468;-75
2023/06/02 08:53:37;;;;;;;16.27;9.10;;;;;;;;;;4941308;29;20380;-75
2023/06/02 08:56:04;;;;;;;20.70;9.90;;;;;;;;;;4941019;29;20942;-73
2023/06/02 08:58:31;;;;;;;15.00;11.20;;;;;;;;;;4941032;29;20388;-75
2023/06/02 09:00:57;;;;;;;15.33;9.80;;;;;;;;;;4940992;29;20384;-74
2023/06/02 09:03:27;;;;;;;21.33;10.83;;;;;;;;;;4941544;29;20766;-73
2023/06/02 09:05:53;;;;;;;13.70;11.47;;;;;;;;;;4941451;29;20424;-75
2023/06/02 09:08:19;;;;;;;14.90;10.40;;;;;;;;;;4941422;29;20406;-76
2023/06/02 09:10:47;;;;;;;16.17;9.50;;;;;;;;;;4940052;29;20424;-75
2023/06/02 09:13:33;;;;;;;11.00;9.57;;;;;;;;;;4940032;29;20445;-76
2023/06/02 09:15:59;;;;;;;15.43;10.07;;;;;;;;;;4940652;29;20527;-76
2023/06/02 09:18:26;;;;;;;10.67;9.57;;;;;;;;;;4939814;29;20509;-76
2023/06/02 09:20:53;;;;;;;11.40;10.20;;;;;;;;;;4940220;29;20934;-75
2023/06/02 09:23:19;;;;;;;11.87;10.40;;;;;;;;;;4939671;29;20413;-75
2023/06/02 09:25:45;;;;;;;14.10;11.07;;;;;;;;;;4939687;29;20436;-75
2023/06/02 09:28:12;;;;;;;12.03;10.13;;;;;;;;;;4939900;29;20409;-75
2023/06/02 09:30:38;;;;;;;12.80;9.30;;;;;;;;;;4939798;29;20424;-75
2023/06/02 09:33:11;;;;;;;14.53;9.30;;;;;;;;;;4939666;29;20512;-76
2023/06/02 09:35:41;;;;;;;9.30;8.40;;;;;;;;;;4939633;29;20461;-75
2023/06/02 09:38:11;;;;;;;11.20;10.03;;;;;;;;;;4938625;29;20513;-81
2023/06/02 09:40:41;;;;;;;13.57;9.53;;;;;;;;;;4938191;29;20465;-81
2023/06/02 09:43:08;;;;;;;14.93;9.90;;;;;;;;;;4938350;29;20429;-81
2023/06/02 09:45:34;;;;;;;14.23;10.40;;;;;;;;;;4938255;29;20428;-81
2023/06/02 09:48:00;;;;;;;12.67;11.17;;;;;;;;;;4938834;29;20488;-81
2023/06/02 09:50:32;;;;;;;14.20;11.03;;;;;;;;;;4938254;29;20470;-79
2023/06/02 09:53:18;;;;;;;13.90;10.43;;;;;;;;;;4937995;29;20421;-81
2023/06/02 09:55:44;;;;;;;12.10;8.60;;;;;;;;;;4938086;29;20472;-81
2023/06/02 09:58:10;;;;;;;12.23;8.53;;;;;;;;;;4938148;29;20785;-80
2023/06/02 10:00:36;;;;;;;16.60;9.63;;;;;;;;;;4937695;29;20800;-78
2023/06/02 10:03:02;;;;;;;11.10;9.00;;;;;;;;;;4938807;29;20408;-73
2023/06/02 10:05:29;;;;;;;10.40;8.40;;;;;;;;;;4937964;29;20452;-73
2023/06/02 10:08:10;;;;;;;9.70;7.77;;;;;;;;;;4938319;29;20425;-72
2023/06/02 10:10:45;;;;;;;11.43;7.87;;;;;;;;;;4950637;29;20777;-73
2023/06/02 10:13:21;;;;;;;9.63;6.90;;;;;;;;;;4957312;29;20420;-73
2023/06/02 10:15:54;;;;;;;9.50;7.30;;;;;;;;;;4957275;29;20455;-73
2023/06/02 10:18:33;;;;;;;8.70;7.50;;;;;;;;;;4951492;29;20798;-73
2023/06/02 10:21:05;;;;;;;9.47;7.40;;;;;;;;;;4946301;29;20774;-73
2023/06/02 10:23:37;;;;;;;9.63;6.53;;;;;;;;;;4937379;29;20421;-73
2023/06/02 10:26:19;;;;;;;9.10;6.80;;;;;;;;;;4937165;29;20428;-73
2023/06/02 10:28:46;;;;;;;9.43;6.63;;;;;;;;;;4937986;29;20815;-75
2023/06/02 10:31:13;;;;;;;12.27;7.50;;;;;;;;;;4937663;29;20418;-76
2023/06/02 10:33:46;;;;;;;7.80;6.60;;;;;;;;;;4936588;29;20421;-76
2023/06/02 10:36:13;;;;;;;12.63;7.33;;;;;;;;;;4937033;29;20480;-76
2023/06/02 10:38:39;;;;;;;15.50;7.77;;;;;;;;;;4936946;29;20413;-75
2023/06/02 10:41:06;;;;;;;10.97;7.10;;;;;;;;;;4945893;29;20430;-76
2023/06/02 10:43:34;;;;;;;8.47;6.57;;;;;;;;;;4956799;29;20408;-76
2023/06/02 10:46:17;;;;;;;10.70;6.83;;;;;;;;;;4956526;29;20440;-75
2023/06/02 10:48:43;;;;;;;9.40;7.00;;;;;;;;;;4956303;29;20416;-76
2023/06/02 10:51:10;;;;;;;9.63;6.73;;;;;;;;;;4956692;29;20812;-76
2023/06/02 10:53:56;;;;;;;11.60;6.97;;;;;;;;;;4956487;29;20416;-76
2023/06/02 10:56:40;;;;;;;9.23;6.70;;;;;;;;;;4956631;29;20479;-77
2023/06/02 10:59:07;;;;;;;14.03;6.80;;;;;;;;;;4956346;29;20478;-76
2023/06/02 11:01:52;;;;;;;9.43;5.70;;;;;;;;;;4956851;29;20415;-76
2023/06/02 11:04:34;;;;;;;9.50;6.73;;;;;;;;;;4957239;29;20417;-75
2023/06/02 11:07:18;;;;;;;11.10;5.40;;;;;;;;;;4957068;29;20782;-75
2023/06/02 11:09:44;;;;;;;7.87;6.20;;;;;;;;;;4956098;29;20499;-77
2023/06/02 11:12:10;;;;;;;10.90;5.80;;;;;;;;;;4956853;29;20415;-74
2023/06/02 11:14:55;;;;;;;12.83;5.93;;;;;;;;;;4956319;29;20763;-77
2023/06/02 11:17:30;;;;;;;7.83;6.10;;;;;;;;;;4955307;28;20754;-77
2023/06/02 11:19:57;;;;;;;8.77;5.80;;;;;;;;;;4956498;29;20408;-77
2023/06/02 11:22:23;;;;;;;10.37;6.50;;;;;;;;;;4956692;29;20409;-77
2023/06/02 11:24:52;;;;;;;11.40;5.90;;;;;;;;;;4956223;29;20412;-75
2023/06/02 11:27:19;;;;;;;10.47;5.97;;;;;;;;;;4956298;29;20421;-77
2023/06/02 11:29:45;;;;;;;14.17;6.80;;;;;;;;;;4956547;29;20984;-75
2023/06/02 11:32:15;;;;;;;9.30;5.93;;;;;;;;;;4955390;29;20991;-74
2023/06/02 11:34:41;;;;;;;9.87;6.40;;;;;;;;;;4956653;29;20829;-75
2023/06/02 11:37:20;;;;;;;10.67;6.57;;;;;;;;;;4958990;28;20908;-76
2023/06/02 11:39:53;;;;;;;12.03;6.87;;;;;;;;;;4960106;29;20813;-76
2023/06/02 11:42:19;;;;;;;10.40;5.97;;;;;;;;;;4960105;29;20404;-76
2023/06/02 11:44:51;;;;;;;10.23;6.40;;;;;;;;;;4959356;29;20537;-76
2023/06/02 11:47:20;;;;;;;12.67;6.30;;;;;;;;;;4959863;29;20884;-76
2023/06/02 11:49:47;;;;;;;10.83;6.60;;;;;;;;;;4959251;29;20495;-76
2023/06/02 11:52:13;;;;;;;9.27;5.60;;;;;;;;;;4959770;29;20435;-75
2023/06/02 11:54:52;;;;;;;14.77;6.60;;;;;;;;;;4958697;29;20401;-76
2023/06/02 11:57:25;;;;;;;8.83;6.33;;;;;;;;;;4959193;29;20942;-76
2023/06/02 12:00:09;;;;;;;9.73;6.83;;;;;;;;;;4959174;29;20455;-76
2023/06/02 12:02:36;;;;;;;12.17;6.40;;;;;;;;;;4959200;29;20444;-76
2023/06/02 12:05:02;;;;;;;11.20;5.80;;;;;;;;;;4958787;29;20921;-75
2023/06/02 12:07:29;;;;;;;8.87;5.53;;;;;;;;;;4958974;29;20773;-76
2023/06/02 12:09:55;;;;;;;10.40;6.13;;;;;;;;;;4958822;29;20414;-76
2023/06/02 12:12:21;;;;;;;12.20;5.97;;;;;;;;;;4959313;29;20409;-76
2023/06/02 12:14:47;;;;;;;10.80;6.90;;;;;;;;;;4959010;29;20471;-76
2023/06/02 12:17:13;;;;;;;12.10;6.00;;;;;;;;;;4959120;29;20412;-76
2023/06/02 12:19:39;;;;;;;8.93;5.93;;;;;;;;;;4958826;29;20404;-76
2023/06/02 12:22:16;;;;;;;13.57;6.63;;;;;;;;;;4958645;29;20416;-76
2023/06/02 12:24:43;;;;;;;16.23;6.87;;;;;;;;;;4958515;29;20424;-76
2023/06/02 12:27:15;;;;;;;8.10;5.83;;;;;;;;;;4958589;29;20755;-76
2023/06/02 12:29:41;;;;;;;9.70;6.03;;;;;;;;;;4958503;29;20428;-76
2023/06/02 12:32:08;;;;;;;11.90;6.17;;;;;;;;;;4958798;29;20463;-77
2023/06/02 12:34:34;;;;;;;10.27;5.90;;;;;;;;;;4958907;29;20471;-76
2023/06/02 12:37:03;;;;;;;9.27;6.17;;;;;;;;;;4957928;29;20512;-76
2023/06/02 12:39:29;;;;;;;11.83;6.17;;;;;;;;;;4958340;29;20409;-76
2023/06/02 12:41:55;;;;;;;9.13;5.47;;;;;;;;;;4958298;29;20802;-76
2023/06/02 12:44:21;;;;;;;14.43;7.00;;;;;;;;;;4957329;28;20912;-76
2023/06/02 12:46:47;;;;;;;12.50;6.33;;;;;;;;;;4958240;29;20956;-76
2023/06/02 12:49:14;;;;;;;12.70;6.70;;;;;;;;;;4957970;28;20409;-76
2023/06/02 12:51:40;;;;;;;11.93;6.00;;;;;;;;;;4958446;29;20540;-77
2023/06/02 12:54:06;;;;;;;14.40;6.40;;;;;;;;;;4958278;29;20441;-76
2023/06/02 12:56:32;;;;;;;11.70;7.67;;;;;;;;;;4957765;29;20472;-76
2023/06/02 12:58:58;;;;;;;10.43;7.73;;;;;;;;;;4957319;29;20912;-76
2023/06/02 13:01:24;;;;;;;13.20;7.30;;;;;;;;;;4958172;29;20412;-76
2023/06/02 13:03:52;;;;;;;11.03;7.40;;;;;;;;;;4957478;29;20472;-76
2023/06/02 13:06:18;;;;;;;12.67;6.83;;;;;;;;;;4957621;29;20424;-77
2023/06/02 13:08:45;;;;;;;14.77;6.77;;;;;;;;;;4957039;29;20460;-77
2023/06/02 13:11:11;;;;;;;16.23;7.43;;;;;;;;;;4957544;29;20885;-76
2023/06/02 13:13:37;;;;;;;10.37;6.53;;;;;;;;;;4957738;29;20413;-76
2023/06/02 13:16:03;;;;;;;12.67;7.57;;;;;;;;;;4957644;29;20468;-78
2023/06/02 13:18:29;;;;;;;10.50;6.47;;;;;;;;;;4957372;29;20405;-75
2023/06/02 13:20:56;;;;;;;11.00;8.30;;;;;;;;;;4957281;29;20412;-75
2023/06/02 13:23:22;;;;;;;10.53;7.30;;;;;;;;;;4957223;29;20412;-75
2023/06/02 13:25:49;;;;;;;15.70;7.10;;;;;;;;;;4957279;29;20468;-76
2023/06/02 13:28:15;;;;;;;12.87;6.37;;;;;;;;;;4957744;29;20417;-75
2023/06/02 13:30:41;;;;;;;7.33;5.23;;;;;;;;;;4956766;29;20995;-75
2023/06/02 13:33:07;;;;;;;9.87;5.77;;;;;;;;;;4957473;29;20431;-75
2023/06/02 13:35:33;;;;;;;9.57;5.03;;;;;;;;;;4956814;29;20482;-75
2023/06/02 13:37:59;;;;;;;8.07;5.40;;;;;;;;;;4956499;29;20573;-75
2023/06/02 13:40:27;;;;;;;10.57;5.00;;;;;;;;;;4957020;29;20491;-76
2023/06/02 13:42:53;;;;;;;6.90;5.00;;;;;;;;;;4956545;29;20411;-75
2023/06/02 13:45:19;;;;;;;9.33;5.70;;;;;;;;;;4957110;29;20409;-75
2023/06/02 13:47:45;;;;;;;11.17;4.70;;;;;;;;;;4956471;29;20768;-76
2023/06/02 13:50:11;;;;;;;7.73;4.60;;;;;;;;;;4956613;29;20559;-79
2023/06/02 13:52:38;;;;;;;9.63;5.23;;;;;;;;;;4956373;29;20795;-77
2023/06/02 13:55:04;;;;;;;9.17;4.83;;;;;;;;;;4956240;29;20476;-76
2023/06/02 13:57:30;;;;;;;6.73;4.67;;;;;;;;;;4956673;29;20420;-76
2023/06/02 13:59:56;;;;;;;9.77;5.07;;;;;;;;;;4955520;28;20780;-76
2023/06/02 14:02:22;;;;;;;9.93;5.20;;;;;;;;;;4956578;29;20920;-78
2023/06/02 14:04:48;;;;;;;11.00;4.60;;;;;;;;;;4956462;29;20756;-76
2023/06/02 14:07:14;;;;;;;9.53;5.20;;;;;;;;;;4956497;29;20499;-78
2023/06/02 14:09:40;;;;;;;9.70;5.80;;;;;;;;;;4956105;29;20914;-75
2023/06/02 14:12:07;;;;;;;7.50;5.40;;;;;;;;;;4956701;29;20492;-76
2023/06/02 14:14:33;;;;;;;14.23;5.67;;;;;;;;;;4956229;29;20503;-77
2023/06/02 14:16:59;;;;;;;10.60;5.33;;;;;;;;;;4955981;29;20410;-75
2023/06/02 14:19:25;;;;;;;11.77;6.10;;;;;;;;;;4955979;29;20413;-78
2023/06/02 14:21:51;;;;;;;8.23;4.93;;;;;;;;;;4955342;29;20413;-75
2023/06/02 14:24:17;;;;;;;8.10;5.50;;;;;;;;;;4955983;29;20438;-77
2023/06/02 14:26:43;;;;;;;10.07;5.43;;;;;;;;;;4955757;29;20420;-76